sensor_id;sensor_type;location;lat;lon;timestamp;P1;durP1;ratioP1;P2;durP2;ratioP2
3781;SDS011;6881;49.962;7.718;2023-12-20T00:00:38;2.07;;;1.00;;
3781;SDS011;6881;49.962;7.718;2023-12-20T00:03:04;1.00;;;0.77;;
3781;SDS011;6881;49.962;7.718;2023-12-20T00:05:30;2.33;;;1.37;;
3781;SDS011;6881;49.962;7.718;2023-12-20T00:07:57;1.77;;;0.93;;
3781;SDS011;6881;49.962;7.718;2023-12-20T00:10:22;1.17;;;0.60;;
3781;SDS011;6881;49.962;7.718;2023-12-20T00:12:47;0.70;;;0.40;;
3781;SDS011;6881;49.962;7.718;2023-12-20T00:15:13;1.67;;;0.90;;
3781;SDS011;6881;49.962;7.718;2023-12-20T00:17:38;1.57;;;0.60;;
3781;SDS011;6881;49.962;7.718;2023-12-20T00:20:04;1.27;;;0.67;;
3781;SDS011;6881;49.962;7.718;2023-12-20T00:22:31;1.17;;;0.90;;
3781;SDS011;6881;49.962;7.718;2023-12-20T00:24:56;1.60;;;1.00;;
3781;SDS011;6881;49.962;7.718;2023-12-20T00:27:21;1.07;;;0.70;;
3781;SDS011;6881;49.962;7.718;2023-12-20T00:29:47;1.17;;;0.80;;
3781;SDS011;6881;49.962;7.718;2023-12-20T00:32:15;1.17;;;0.77;;
3781;SDS011;6881;49.962;7.718;2023-12-20T00:34:40;1.83;;;1.40;;
3781;SDS011;6881;49.962;7.718;2023-12-20T00:37:05;1.60;;;1.00;;
3781;SDS011;6881;49.962;7.718;2023-12-20T00:39:31;1.37;;;0.63;;
3781;SDS011;6881;49.962;7.718;2023-12-20T00:41:57;0.90;;;0.70;;
3781;SDS011;6881;49.962;7.718;2023-12-20T00:44:23;1.00;;;0.63;;
3781;SDS011;6881;49.962;7.718;2023-12-20T00:46:48;1.20;;;0.87;;
3781;SDS011;6881;49.962;7.718;2023-12-20T00:49:13;1.80;;;1.13;;
3781;SDS011;6881;49.962;7.718;2023-12-20T00:51:38;1.40;;;0.77;;
3781;SDS011;6881;49.962;7.718;2023-12-20T00:54:04;1.27;;;0.80;;
3781;SDS011;6881;49.962;7.718;2023-12-20T00:56:29;1.10;;;0.70;;
3781;SDS011;6881;49.962;7.718;2023-12-20T00:58:54;1.50;;;1.00;;
3781;SDS011;6881;49.962;7.718;2023-12-20T01:01:20;1.73;;;1.20;;
3781;SDS011;6881;49.962;7.718;2023-12-20T01:03:46;1.13;;;0.90;;
3781;SDS011;6881;49.962;7.718;2023-12-20T01:06:12;1.23;;;1.03;;
3781;SDS011;6881;49.962;7.718;2023-12-20T01:08:37;1.00;;;0.70;;
3781;SDS011;6881;49.962;7.718;2023-12-20T01:11:05;1.53;;;0.90;;
3781;SDS011;6881;49.962;7.718;2023-12-20T01:13:31;1.60;;;1.20;;
3781;SDS011;6881;49.962;7.718;2023-12-20T01:15:56;1.23;;;0.77;;
3781;SDS011;6881;49.962;7.718;2023-12-20T01:18:21;1.10;;;0.77;;
3781;SDS011;6881;49.962;7.718;2023-12-20T01:20:47;1.00;;;0.77;;
3781;SDS011;6881;49.962;7.718;2023-12-20T01:23:12;1.20;;;1.00;;
3781;SDS011;6881;49.962;7.718;2023-12-20T01:25:37;1.93;;;0.70;;
3781;SDS011;6881;49.962;7.718;2023-12-20T01:28:03;1.50;;;0.90;;
3781;SDS011;6881;49.962;7.718;2023-12-20T01:30:28;1.10;;;0.80;;
3781;SDS011;6881;49.962;7.718;2023-12-20T01:32:53;0.80;;;0.50;;
3781;SDS011;6881;49.962;7.718;2023-12-20T01:35:19;1.30;;;0.80;;
3781;SDS011;6881;49.962;7.718;2023-12-20T01:37:44;2.80;;;1.73;;
3781;SDS011;6881;49.962;7.718;2023-12-20T01:40:10;3.87;;;2.40;;
3781;SDS011;6881;49.962;7.718;2023-12-20T01:42:35;5.40;;;2.90;;
3781;SDS011;6881;49.962;7.718;2023-12-20T01:45:01;2.70;;;1.30;;
3781;SDS011;6881;49.962;7.718;2023-12-20T01:47:27;1.20;;;1.10;;
3781;SDS011;6881;49.962;7.718;2023-12-20T01:49:52;1.87;;;1.30;;
3781;SDS011;6881;49.962;7.718;2023-12-20T01:52:18;1.20;;;1.10;;
3781;SDS011;6881;49.962;7.718;2023-12-20T01:54:44;2.93;;;1.37;;
3781;SDS011;6881;49.962;7.718;2023-12-20T01:57:09;2.23;;;1.60;;
3781;SDS011;6881;49.962;7.718;2023-12-20T01:59:35;1.70;;;1.17;;
3781;SDS011;6881;49.962;7.718;2023-12-20T02:02:00;1.67;;;1.00;;
3781;SDS011;6881;49.962;7.718;2023-12-20T02:04:26;1.60;;;1.00;;
3781;SDS011;6881;49.962;7.718;2023-12-20T02:06:52;1.20;;;0.93;;
3781;SDS011;6881;49.962;7.718;2023-12-20T02:09:17;1.53;;;1.07;;
3781;SDS011;6881;49.962;7.718;2023-12-20T02:11:43;1.80;;;1.13;;
3781;SDS011;6881;49.962;7.718;2023-12-20T02:14:08;1.73;;;1.40;;
3781;SDS011;6881;49.962;7.718;2023-12-20T02:16:34;2.00;;;1.50;;
3781;SDS011;6881;49.962;7.718;2023-12-20T02:18:59;2.00;;;1.60;;
3781;SDS011;6881;49.962;7.718;2023-12-20T02:21:25;2.33;;;1.70;;
3781;SDS011;6881;49.962;7.718;2023-12-20T02:23:50;1.60;;;1.30;;
3781;SDS011;6881;49.962;7.718;2023-12-20T02:26:16;2.70;;;2.10;;
3781;SDS011;6881;49.962;7.718;2023-12-20T02:28:41;2.57;;;1.70;;
3781;SDS011;6881;49.962;7.718;2023-12-20T02:31:07;2.00;;;1.63;;
3781;SDS011;6881;49.962;7.718;2023-12-20T02:33:32;3.03;;;2.30;;
3781;SDS011;6881;49.962;7.718;2023-12-20T02:35:57;3.53;;;2.53;;
3781;SDS011;6881;49.962;7.718;2023-12-20T02:38:23;2.30;;;2.00;;
3781;SDS011;6881;49.962;7.718;2023-12-20T02:40:48;3.80;;;2.70;;
3781;SDS011;6881;49.962;7.718;2023-12-20T02:43:13;2.50;;;2.30;;
3781;SDS011;6881;49.962;7.718;2023-12-20T02:45:38;2.93;;;2.07;;
3781;SDS011;6881;49.962;7.718;2023-12-20T02:48:04;1.50;;;1.40;;
3781;SDS011;6881;49.962;7.718;2023-12-20T02:50:29;2.40;;;2.10;;
3781;SDS011;6881;49.962;7.718;2023-12-20T02:52:55;2.00;;;1.80;;
3781;SDS011;6881;49.962;7.718;2023-12-20T02:55:20;2.50;;;1.60;;
3781;SDS011;6881;49.962;7.718;2023-12-20T02:57:45;2.30;;;1.67;;
3781;SDS011;6881;49.962;7.718;2023-12-20T03:00:10;2.07;;;1.87;;
3781;SDS011;6881;49.962;7.718;2023-12-20T03:02:36;2.90;;;1.93;;
3781;SDS011;6881;49.962;7.718;2023-12-20T03:05:02;2.93;;;1.83;;
3781;SDS011;6881;49.962;7.718;2023-12-20T03:07:27;2.73;;;2.00;;
3781;SDS011;6881;49.962;7.718;2023-12-20T03:09:53;2.57;;;2.17;;
3781;SDS011;6881;49.962;7.718;2023-12-20T03:12:18;2.30;;;2.00;;
3781;SDS011;6881;49.962;7.718;2023-12-20T03:14:44;2.57;;;2.20;;
3781;SDS011;6881;49.962;7.718;2023-12-20T03:17:09;2.63;;;2.10;;
3781;SDS011;6881;49.962;7.718;2023-12-20T03:19:35;3.60;;;2.70;;
3781;SDS011;6881;49.962;7.718;2023-12-20T03:22:00;3.43;;;2.70;;
3781;SDS011;6881;49.962;7.718;2023-12-20T03:24:26;3.77;;;2.30;;
3781;SDS011;6881;49.962;7.718;2023-12-20T03:26:51;2.47;;;2.27;;
3781;SDS011;6881;49.962;7.718;2023-12-20T03:29:16;2.90;;;2.20;;
3781;SDS011;6881;49.962;7.718;2023-12-20T03:31:42;2.80;;;2.27;;
3781;SDS011;6881;49.962;7.718;2023-12-20T03:34:07;3.97;;;3.00;;
3781;SDS011;6881;49.962;7.718;2023-12-20T03:36:32;2.70;;;2.40;;
3781;SDS011;6881;49.962;7.718;2023-12-20T03:38:58;3.63;;;2.93;;
3781;SDS011;6881;49.962;7.718;2023-12-20T03:41:23;3.20;;;2.40;;
3781;SDS011;6881;49.962;7.718;2023-12-20T03:43:48;4.80;;;3.97;;
3781;SDS011;6881;49.962;7.718;2023-12-20T03:46:14;5.50;;;2.80;;
3781;SDS011;6881;49.962;7.718;2023-12-20T03:48:39;4.80;;;3.00;;
3781;SDS011;6881;49.962;7.718;2023-12-20T03:51:04;4.40;;;3.23;;
3781;SDS011;6881;49.962;7.718;2023-12-20T03:53:29;4.40;;;3.10;;
3781;SDS011;6881;49.962;7.718;2023-12-20T03:55:55;4.17;;;3.07;;
3781;SDS011;6881;49.962;7.718;2023-12-20T03:58:20;3.53;;;2.87;;
3781;SDS011;6881;49.962;7.718;2023-12-20T04:00:45;4.20;;;3.00;;
3781;SDS011;6881;49.962;7.718;2023-12-20T04:03:11;2.67;;;2.27;;
3781;SDS011;6881;49.962;7.718;2023-12-20T04:05:38;4.53;;;2.80;;
3781;SDS011;6881;49.962;7.718;2023-12-20T04:08:05;4.47;;;3.80;;
3781;SDS011;6881;49.962;7.718;2023-12-20T04:10:30;3.30;;;2.80;;
3781;SDS011;6881;49.962;7.718;2023-12-20T04:12:56;4.60;;;3.37;;
3781;SDS011;6881;49.962;7.718;2023-12-20T04:15:21;3.37;;;2.63;;
3781;SDS011;6881;49.962;7.718;2023-12-20T04:17:46;3.20;;;2.40;;
3781;SDS011;6881;49.962;7.718;2023-12-20T04:20:12;3.47;;;2.90;;
3781;SDS011;6881;49.962;7.718;2023-12-20T04:22:37;5.80;;;2.70;;
3781;SDS011;6881;49.962;7.718;2023-12-20T04:25:02;3.60;;;2.63;;
3781;SDS011;6881;49.962;7.718;2023-12-20T04:27:28;4.30;;;2.53;;
3781;SDS011;6881;49.962;7.718;2023-12-20T04:29:54;12.43;;;3.03;;
3781;SDS011;6881;49.962;7.718;2023-12-20T04:32:19;2.63;;;1.70;;
3781;SDS011;6881;49.962;7.718;2023-12-20T04:34:44;6.70;;;2.57;;
3781;SDS011;6881;49.962;7.718;2023-12-20T04:37:09;3.33;;;2.37;;
3781;SDS011;6881;49.962;7.718;2023-12-20T04:39:35;9.53;;;2.47;;
3781;SDS011;6881;49.962;7.718;2023-12-20T04:42:00;3.90;;;2.17;;
3781;SDS011;6881;49.962;7.718;2023-12-20T04:44:26;9.23;;;2.27;;
3781;SDS011;6881;49.962;7.718;2023-12-20T04:46:51;5.43;;;2.33;;
3781;SDS011;6881;49.962;7.718;2023-12-20T04:49:17;5.97;;;1.80;;
3781;SDS011;6881;49.962;7.718;2023-12-20T04:51:42;7.30;;;2.57;;
3781;SDS011;6881;49.962;7.718;2023-12-20T04:54:07;3.20;;;2.23;;
3781;SDS011;6881;49.962;7.718;2023-12-20T04:56:32;1.93;;;1.70;;
3781;SDS011;6881;49.962;7.718;2023-12-20T04:58:58;3.67;;;2.20;;
3781;SDS011;6881;49.962;7.718;2023-12-20T05:01:23;9.43;;;2.70;;
3781;SDS011;6881;49.962;7.718;2023-12-20T05:03:48;3.80;;;2.53;;
3781;SDS011;6881;49.962;7.718;2023-12-20T05:06:14;3.50;;;3.03;;
3781;SDS011;6881;49.962;7.718;2023-12-20T05:08:39;4.20;;;2.20;;
3781;SDS011;6881;49.962;7.718;2023-12-20T05:11:05;2.17;;;1.83;;
3781;SDS011;6881;49.962;7.718;2023-12-20T05:13:31;4.13;;;2.93;;
3781;SDS011;6881;49.962;7.718;2023-12-20T05:15:56;3.33;;;2.73;;
3781;SDS011;6881;49.962;7.718;2023-12-20T05:18:21;4.10;;;2.63;;
3781;SDS011;6881;49.962;7.718;2023-12-20T05:20:48;8.00;;;2.90;;
3781;SDS011;6881;49.962;7.718;2023-12-20T05:23:13;5.13;;;2.97;;
3781;SDS011;6881;49.962;7.718;2023-12-20T05:25:39;3.00;;;2.60;;
3781;SDS011;6881;49.962;7.718;2023-12-20T05:28:04;2.70;;;2.50;;
3781;SDS011;6881;49.962;7.718;2023-12-20T05:30:30;7.40;;;3.00;;
3781;SDS011;6881;49.962;7.718;2023-12-20T05:32:55;4.77;;;3.50;;
3781;SDS011;6881;49.962;7.718;2023-12-20T05:35:20;3.27;;;2.97;;
3781;SDS011;6881;49.962;7.718;2023-12-20T05:37:47;4.40;;;3.23;;
3781;SDS011;6881;49.962;7.718;2023-12-20T05:40:12;7.17;;;3.90;;
3781;SDS011;6881;49.962;7.718;2023-12-20T05:42:38;4.57;;;2.80;;
3781;SDS011;6881;49.962;7.718;2023-12-20T05:45:04;3.80;;;2.23;;
3781;SDS011;6881;49.962;7.718;2023-12-20T05:47:30;3.00;;;2.37;;
3781;SDS011;6881;49.962;7.718;2023-12-20T05:49:55;3.17;;;2.87;;
3781;SDS011;6881;49.962;7.718;2023-12-20T05:52:20;6.00;;;3.20;;
3781;SDS011;6881;49.962;7.718;2023-12-20T05:54:46;5.00;;;2.60;;
3781;SDS011;6881;49.962;7.718;2023-12-20T05:57:12;3.87;;;2.03;;
3781;SDS011;6881;49.962;7.718;2023-12-20T05:59:37;1.90;;;1.70;;
3781;SDS011;6881;49.962;7.718;2023-12-20T06:02:03;6.47;;;2.10;;
3781;SDS011;6881;49.962;7.718;2023-12-20T06:04:29;6.00;;;2.00;;
3781;SDS011;6881;49.962;7.718;2023-12-20T06:06:54;7.97;;;2.63;;
3781;SDS011;6881;49.962;7.718;2023-12-20T06:09:19;2.93;;;2.53;;
3781;SDS011;6881;49.962;7.718;2023-12-20T06:11:44;3.03;;;2.17;;
3781;SDS011;6881;49.962;7.718;2023-12-20T06:14:10;5.00;;;2.07;;
3781;SDS011;6881;49.962;7.718;2023-12-20T06:16:36;3.33;;;2.40;;
3781;SDS011;6881;49.962;7.718;2023-12-20T06:19:01;3.27;;;2.40;;
3781;SDS011;6881;49.962;7.718;2023-12-20T06:21:26;8.93;;;2.70;;
3781;SDS011;6881;49.962;7.718;2023-12-20T06:23:52;3.70;;;2.10;;
3781;SDS011;6881;49.962;7.718;2023-12-20T06:26:17;5.03;;;2.20;;
3781;SDS011;6881;49.962;7.718;2023-12-20T06:28:42;4.63;;;1.70;;
3781;SDS011;6881;49.962;7.718;2023-12-20T06:31:08;4.07;;;1.90;;
3781;SDS011;6881;49.962;7.718;2023-12-20T06:33:33;4.17;;;2.30;;
3781;SDS011;6881;49.962;7.718;2023-12-20T06:35:59;8.80;;;2.30;;
3781;SDS011;6881;49.962;7.718;2023-12-20T06:38:24;4.33;;;2.10;;
3781;SDS011;6881;49.962;7.718;2023-12-20T06:40:49;11.33;;;3.87;;
3781;SDS011;6881;49.962;7.718;2023-12-20T06:43:15;7.30;;;3.50;;
3781;SDS011;6881;49.962;7.718;2023-12-20T06:45:40;8.23;;;3.57;;
3781;SDS011;6881;49.962;7.718;2023-12-20T06:48:06;5.30;;;3.20;;
3781;SDS011;6881;49.962;7.718;2023-12-20T06:50:31;7.37;;;3.00;;
3781;SDS011;6881;49.962;7.718;2023-12-20T06:52:56;8.77;;;3.90;;
3781;SDS011;6881;49.962;7.718;2023-12-20T06:55:22;3.43;;;2.80;;
3781;SDS011;6881;49.962;7.718;2023-12-20T06:57:48;6.20;;;2.77;;
3781;SDS011;6881;49.962;7.718;2023-12-20T07:00:13;4.70;;;3.00;;
3781;SDS011;6881;49.962;7.718;2023-12-20T07:02:39;9.80;;;3.17;;
3781;SDS011;6881;49.962;7.718;2023-12-20T07:05:04;5.20;;;2.97;;
3781;SDS011;6881;49.962;7.718;2023-12-20T07:07:30;4.93;;;2.90;;
3781;SDS011;6881;49.962;7.718;2023-12-20T07:09:55;4.23;;;2.53;;
3781;SDS011;6881;49.962;7.718;2023-12-20T07:12:20;6.13;;;2.63;;
3781;SDS011;6881;49.962;7.718;2023-12-20T07:14:46;4.37;;;3.57;;
3781;SDS011;6881;49.962;7.718;2023-12-20T07:17:11;4.90;;;2.90;;
3781;SDS011;6881;49.962;7.718;2023-12-20T07:19:38;9.20;;;4.00;;
3781;SDS011;6881;49.962;7.718;2023-12-20T07:22:05;4.87;;;3.37;;
3781;SDS011;6881;49.962;7.718;2023-12-20T07:24:30;6.50;;;3.17;;
3781;SDS011;6881;49.962;7.718;2023-12-20T07:26:56;7.63;;;3.37;;
3781;SDS011;6881;49.962;7.718;2023-12-20T07:29:21;9.57;;;3.13;;
3781;SDS011;6881;49.962;7.718;2023-12-20T07:31:47;6.93;;;2.90;;
3781;SDS011;6881;49.962;7.718;2023-12-20T07:34:12;8.10;;;3.40;;
3781;SDS011;6881;49.962;7.718;2023-12-20T07:36:37;4.10;;;3.20;;
3781;SDS011;6881;49.962;7.718;2023-12-20T07:39:03;17.70;;;4.20;;
3781;SDS011;6881;49.962;7.718;2023-12-20T07:41:28;9.10;;;3.70;;
3781;SDS011;6881;49.962;7.718;2023-12-20T07:43:53;8.17;;;4.30;;
3781;SDS011;6881;49.962;7.718;2023-12-20T07:46:20;5.40;;;4.50;;
3781;SDS011;6881;49.962;7.718;2023-12-20T07:48:47;8.43;;;5.07;;
3781;SDS011;6881;49.962;7.718;2023-12-20T07:51:14;8.70;;;5.60;;
3781;SDS011;6881;49.962;7.718;2023-12-20T07:53:39;10.03;;;4.23;;
3781;SDS011;6881;49.962;7.718;2023-12-20T07:56:17;6.60;;;4.60;;
3781;SDS011;6881;49.962;7.718;2023-12-20T07:58:43;7.03;;;4.07;;
3781;SDS011;6881;49.962;7.718;2023-12-20T08:01:10;8.43;;;4.63;;
3781;SDS011;6881;49.962;7.718;2023-12-20T08:03:36;7.17;;;4.00;;
3781;SDS011;6881;49.962;7.718;2023-12-20T08:06:02;6.70;;;5.23;;
3781;SDS011;6881;49.962;7.718;2023-12-20T08:08:28;11.17;;;6.27;;
3781;SDS011;6881;49.962;7.718;2023-12-20T08:10:53;6.87;;;4.70;;
3781;SDS011;6881;49.962;7.718;2023-12-20T08:13:18;7.27;;;4.80;;
3781;SDS011;6881;49.962;7.718;2023-12-20T08:15:44;9.00;;;5.50;;
3781;SDS011;6881;49.962;7.718;2023-12-20T08:18:09;11.20;;;5.37;;
3781;SDS011;6881;49.962;7.718;2023-12-20T08:20:34;13.87;;;5.20;;
3781;SDS011;6881;49.962;7.718;2023-12-20T08:22:59;13.17;;;6.17;;
3781;SDS011;6881;49.962;7.718;2023-12-20T08:25:25;20.10;;;8.87;;
3781;SDS011;6881;49.962;7.718;2023-12-20T08:27:50;15.63;;;10.13;;
3781;SDS011;6881;49.962;7.718;2023-12-20T08:30:16;10.83;;;5.30;;
3781;SDS011;6881;49.962;7.718;2023-12-20T08:32:46;6.30;;;4.23;;
3781;SDS011;6881;49.962;7.718;2023-12-20T08:35:12;9.97;;;4.10;;
3781;SDS011;6881;49.962;7.718;2023-12-20T08:37:38;15.47;;;7.20;;
3781;SDS011;6881;49.962;7.718;2023-12-20T08:40:03;13.30;;;7.40;;
3781;SDS011;6881;49.962;7.718;2023-12-20T08:42:29;14.00;;;6.97;;
3781;SDS011;6881;49.962;7.718;2023-12-20T08:44:56;10.60;;;5.57;;
3781;SDS011;6881;49.962;7.718;2023-12-20T08:47:23;7.43;;;4.50;;
3781;SDS011;6881;49.962;7.718;2023-12-20T08:49:48;9.07;;;6.03;;
3781;SDS011;6881;49.962;7.718;2023-12-20T08:52:14;13.50;;;5.87;;
3781;SDS011;6881;49.962;7.718;2023-12-20T08:54:39;9.63;;;5.30;;
3781;SDS011;6881;49.962;7.718;2023-12-20T08:57:04;6.23;;;4.70;;
3781;SDS011;6881;49.962;7.718;2023-12-20T08:59:31;6.33;;;4.10;;
3781;SDS011;6881;49.962;7.718;2023-12-20T09:01:57;7.87;;;5.60;;
3781;SDS011;6881;49.962;7.718;2023-12-20T09:04:23;8.23;;;5.57;;
3781;SDS011;6881;49.962;7.718;2023-12-20T09:06:48;6.00;;;4.70;;
3781;SDS011;6881;49.962;7.718;2023-12-20T09:09:14;7.37;;;6.57;;
3781;SDS011;6881;49.962;7.718;2023-12-20T09:11:39;10.33;;;7.40;;
3781;SDS011;6881;49.962;7.718;2023-12-20T09:14:05;9.10;;;4.70;;
3781;SDS011;6881;49.962;7.718;2023-12-20T09:16:30;8.70;;;4.00;;
3781;SDS011;6881;49.962;7.718;2023-12-20T09:18:56;7.93;;;5.10;;
3781;SDS011;6881;49.962;7.718;2023-12-20T09:21:22;11.17;;;6.27;;
3781;SDS011;6881;49.962;7.718;2023-12-20T09:23:47;8.90;;;4.43;;
3781;SDS011;6881;49.962;7.718;2023-12-20T09:26:12;14.43;;;5.23;;
3781;SDS011;6881;49.962;7.718;2023-12-20T09:28:38;9.67;;;6.77;;
3781;SDS011;6881;49.962;7.718;2023-12-20T09:31:05;9.00;;;4.87;;
3781;SDS011;6881;49.962;7.718;2023-12-20T09:33:30;7.50;;;5.47;;
3781;SDS011;6881;49.962;7.718;2023-12-20T09:35:56;11.50;;;4.30;;
3781;SDS011;6881;49.962;7.718;2023-12-20T09:38:21;6.83;;;4.37;;
3781;SDS011;6881;49.962;7.718;2023-12-20T09:40:47;5.40;;;3.47;;
3781;SDS011;6881;49.962;7.718;2023-12-20T09:43:17;10.97;;;4.37;;
3781;SDS011;6881;49.962;7.718;2023-12-20T09:45:45;9.30;;;3.53;;
3781;SDS011;6881;49.962;7.718;2023-12-20T09:48:11;8.83;;;3.13;;
3781;SDS011;6881;49.962;7.718;2023-12-20T09:50:39;7.03;;;3.70;;
3781;SDS011;6881;49.962;7.718;2023-12-20T09:53:05;6.00;;;3.90;;
3781;SDS011;6881;49.962;7.718;2023-12-20T09:55:34;8.13;;;4.10;;
3781;SDS011;6881;49.962;7.718;2023-12-20T09:58:01;6.00;;;3.00;;
3781;SDS011;6881;49.962;7.718;2023-12-20T10:00:26;8.33;;;3.30;;
3781;SDS011;6881;49.962;7.718;2023-12-20T10:02:58;8.53;;;3.13;;
3781;SDS011;6881;49.962;7.718;2023-12-20T10:05:28;5.97;;;3.27;;
3781;SDS011;6881;49.962;7.718;2023-12-20T10:07:54;7.37;;;3.73;;
3781;SDS011;6881;49.962;7.718;2023-12-20T10:10:20;4.57;;;3.00;;
3781;SDS011;6881;49.962;7.718;2023-12-20T10:13:04;9.10;;;3.47;;
3781;SDS011;6881;49.962;7.718;2023-12-20T10:15:31;5.50;;;3.03;;
3781;SDS011;6881;49.962;7.718;2023-12-20T10:17:58;6.43;;;3.80;;
3781;SDS011;6881;49.962;7.718;2023-12-20T10:20:24;8.50;;;3.13;;
3781;SDS011;6881;49.962;7.718;2023-12-20T10:22:49;6.83;;;2.73;;
3781;SDS011;6881;49.962;7.718;2023-12-20T10:25:14;6.43;;;3.23;;
3781;SDS011;6881;49.962;7.718;2023-12-20T10:27:40;12.33;;;4.40;;
3781;SDS011;6881;49.962;7.718;2023-12-20T10:30:05;5.67;;;3.50;;
3781;SDS011;6881;49.962;7.718;2023-12-20T10:32:31;5.33;;;3.93;;
3781;SDS011;6881;49.962;7.718;2023-12-20T10:34:56;10.00;;;4.70;;
3781;SDS011;6881;49.962;7.718;2023-12-20T10:37:22;8.20;;;3.00;;
3781;SDS011;6881;49.962;7.718;2023-12-20T10:39:51;4.60;;;3.37;;
3781;SDS011;6881;49.962;7.718;2023-12-20T10:42:21;5.83;;;3.10;;
3781;SDS011;6881;49.962;7.718;2023-12-20T10:44:47;10.60;;;2.67;;
3781;SDS011;6881;49.962;7.718;2023-12-20T10:47:14;6.00;;;3.50;;
3781;SDS011;6881;49.962;7.718;2023-12-20T10:49:40;10.43;;;3.23;;
3781;SDS011;6881;49.962;7.718;2023-12-20T10:52:06;6.20;;;4.20;;
3781;SDS011;6881;49.962;7.718;2023-12-20T10:54:32;5.60;;;3.47;;
3781;SDS011;6881;49.962;7.718;2023-12-20T10:56:58;6.07;;;3.20;;
3781;SDS011;6881;49.962;7.718;2023-12-20T10:59:24;5.00;;;3.60;;
3781;SDS011;6881;49.962;7.718;2023-12-20T11:01:50;6.67;;;3.10;;
3781;SDS011;6881;49.962;7.718;2023-12-20T11:04:17;6.13;;;3.03;;
3781;SDS011;6881;49.962;7.718;2023-12-20T11:09:43;5.63;;;2.67;;
3781;SDS011;6881;49.962;7.718;2023-12-20T11:14:51;2.47;;;2.27;;
3781;SDS011;6881;49.962;7.718;2023-12-20T11:17:19;4.00;;;2.47;;
3781;SDS011;6881;49.962;7.718;2023-12-20T11:22:22;9.10;;;3.07;;
3781;SDS011;6881;49.962;7.718;2023-12-20T11:24:52;4.50;;;2.70;;
3781;SDS011;6881;49.962;7.718;2023-12-20T11:27:18;8.07;;;3.90;;
3781;SDS011;6881;49.962;7.718;2023-12-20T11:29:51;4.77;;;3.20;;
3781;SDS011;6881;49.962;7.718;2023-12-20T11:34:50;4.10;;;2.50;;
3781;SDS011;6881;49.962;7.718;2023-12-20T11:37:16;4.77;;;2.90;;
3781;SDS011;6881;49.962;7.718;2023-12-20T11:39:43;4.27;;;2.63;;
3781;SDS011;6881;49.962;7.718;2023-12-20T11:42:09;4.23;;;2.83;;
3781;SDS011;6881;49.962;7.718;2023-12-20T11:44:35;5.90;;;2.83;;
3781;SDS011;6881;49.962;7.718;2023-12-20T11:47:01;5.63;;;3.03;;
3781;SDS011;6881;49.962;7.718;2023-12-20T11:49:27;5.80;;;3.37;;
3781;SDS011;6881;49.962;7.718;2023-12-20T11:51:54;5.80;;;3.50;;
3781;SDS011;6881;49.962;7.718;2023-12-20T11:54:19;10.90;;;2.97;;
3781;SDS011;6881;49.962;7.718;2023-12-20T11:56:45;2.87;;;2.60;;
3781;SDS011;6881;49.962;7.718;2023-12-20T11:59:11;3.70;;;2.63;;
3781;SDS011;6881;49.962;7.718;2023-12-20T12:01:36;7.77;;;3.77;;
3781;SDS011;6881;49.962;7.718;2023-12-20T12:04:05;6.40;;;3.27;;
3781;SDS011;6881;49.962;7.718;2023-12-20T12:06:31;4.73;;;2.63;;
3781;SDS011;6881;49.962;7.718;2023-12-20T12:08:56;6.10;;;3.10;;
3781;SDS011;6881;49.962;7.718;2023-12-20T12:11:22;3.80;;;2.30;;
3781;SDS011;6881;49.962;7.718;2023-12-20T12:13:47;7.23;;;2.90;;
3781;SDS011;6881;49.962;7.718;2023-12-20T12:16:16;4.10;;;2.50;;
3781;SDS011;6881;49.962;7.718;2023-12-20T12:18:43;7.40;;;3.23;;
3781;SDS011;6881;49.962;7.718;2023-12-20T12:21:08;6.00;;;2.80;;
3781;SDS011;6881;49.962;7.718;2023-12-20T12:23:34;3.97;;;2.20;;
3781;SDS011;6881;49.962;7.718;2023-12-20T12:25:59;4.90;;;3.67;;
3781;SDS011;6881;49.962;7.718;2023-12-20T12:28:27;12.27;;;4.07;;
3781;SDS011;6881;49.962;7.718;2023-12-20T12:31:00;7.67;;;3.37;;
3781;SDS011;6881;49.962;7.718;2023-12-20T12:33:26;5.33;;;2.90;;
3781;SDS011;6881;49.962;7.718;2023-12-20T12:35:51;7.17;;;3.80;;
3781;SDS011;6881;49.962;7.718;2023-12-20T12:38:19;9.33;;;3.70;;
3781;SDS011;6881;49.962;7.718;2023-12-20T12:40:46;5.47;;;2.80;;
3781;SDS011;6881;49.962;7.718;2023-12-20T12:43:11;6.80;;;2.80;;
3781;SDS011;6881;49.962;7.718;2023-12-20T12:45:37;6.03;;;3.00;;
3781;SDS011;6881;49.962;7.718;2023-12-20T12:48:03;3.20;;;2.17;;
3781;SDS011;6881;49.962;7.718;2023-12-20T12:50:28;3.93;;;2.20;;
3781;SDS011;6881;49.962;7.718;2023-12-20T12:52:54;4.60;;;3.30;;
3781;SDS011;6881;49.962;7.718;2023-12-20T12:55:19;6.10;;;2.17;;
3781;SDS011;6881;49.962;7.718;2023-12-20T12:57:44;3.70;;;2.30;;
3781;SDS011;6881;49.962;7.718;2023-12-20T13:00:10;3.27;;;2.57;;
3781;SDS011;6881;49.962;7.718;2023-12-20T13:02:36;10.03;;;3.60;;
3781;SDS011;6881;49.962;7.718;2023-12-20T13:05:03;12.73;;;3.73;;
3781;SDS011;6881;49.962;7.718;2023-12-20T13:07:29;8.20;;;3.07;;
3781;SDS011;6881;49.962;7.718;2023-12-20T13:09:54;6.50;;;3.03;;
3781;SDS011;6881;49.962;7.718;2023-12-20T13:12:20;5.30;;;2.60;;
3781;SDS011;6881;49.962;7.718;2023-12-20T13:14:46;6.63;;;2.63;;
3781;SDS011;6881;49.962;7.718;2023-12-20T13:17:12;6.47;;;2.60;;
3781;SDS011;6881;49.962;7.718;2023-12-20T13:19:37;6.80;;;2.53;;
3781;SDS011;6881;49.962;7.718;2023-12-20T13:22:03;5.23;;;2.27;;
3781;SDS011;6881;49.962;7.718;2023-12-20T13:24:28;4.20;;;2.30;;
3781;SDS011;6881;49.962;7.718;2023-12-20T13:26:54;5.40;;;2.60;;
3781;SDS011;6881;49.962;7.718;2023-12-20T13:29:19;6.63;;;2.30;;
3781;SDS011;6881;49.962;7.718;2023-12-20T13:31:45;5.90;;;2.50;;
3781;SDS011;6881;49.962;7.718;2023-12-20T13:34:10;3.33;;;2.10;;
3781;SDS011;6881;49.962;7.718;2023-12-20T13:36:36;5.27;;;2.17;;
3781;SDS011;6881;49.962;7.718;2023-12-20T13:39:02;9.13;;;2.90;;
3781;SDS011;6881;49.962;7.718;2023-12-20T13:41:29;10.27;;;5.30;;
3781;SDS011;6881;49.962;7.718;2023-12-20T13:43:55;6.10;;;2.80;;
3781;SDS011;6881;49.962;7.718;2023-12-20T13:46:20;5.53;;;3.13;;
3781;SDS011;6881;49.962;7.718;2023-12-20T13:48:45;6.90;;;4.27;;
3781;SDS011;6881;49.962;7.718;2023-12-20T13:51:11;9.37;;;6.17;;
3781;SDS011;6881;49.962;7.718;2023-12-20T13:53:36;3.47;;;2.23;;
3781;SDS011;6881;49.962;7.718;2023-12-20T13:56:01;2.50;;;2.30;;
3781;SDS011;6881;49.962;7.718;2023-12-20T13:58:27;2.27;;;1.87;;
3781;SDS011;6881;49.962;7.718;2023-12-20T14:00:52;4.10;;;1.80;;
3781;SDS011;6881;49.962;7.718;2023-12-20T14:03:17;6.30;;;3.47;;
3781;SDS011;6881;49.962;7.718;2023-12-20T14:05:44;6.10;;;3.00;;
3781;SDS011;6881;49.962;7.718;2023-12-20T14:08:10;2.53;;;2.20;;
3781;SDS011;6881;49.962;7.718;2023-12-20T14:10:35;4.77;;;2.40;;
3781;SDS011;6881;49.962;7.718;2023-12-20T14:13:01;3.67;;;1.77;;
3781;SDS011;6881;49.962;7.718;2023-12-20T14:15:26;4.47;;;1.60;;
3781;SDS011;6881;49.962;7.718;2023-12-20T14:17:51;3.00;;;1.53;;
3781;SDS011;6881;49.962;7.718;2023-12-20T14:20:18;4.00;;;2.30;;
3781;SDS011;6881;49.962;7.718;2023-12-20T14:22:43;3.63;;;2.13;;
3781;SDS011;6881;49.962;7.718;2023-12-20T14:25:12;3.73;;;1.80;;
3781;SDS011;6881;49.962;7.718;2023-12-20T14:27:38;3.20;;;1.90;;
3781;SDS011;6881;49.962;7.718;2023-12-20T14:30:04;3.50;;;1.87;;
3781;SDS011;6881;49.962;7.718;2023-12-20T14:32:31;3.50;;;1.90;;
3781;SDS011;6881;49.962;7.718;2023-12-20T14:34:56;8.73;;;2.60;;
3781;SDS011;6881;49.962;7.718;2023-12-20T14:37:22;5.70;;;1.77;;
3781;SDS011;6881;49.962;7.718;2023-12-20T14:39:47;5.20;;;1.63;;
3781;SDS011;6881;49.962;7.718;2023-12-20T14:42:12;5.67;;;2.13;;
3781;SDS011;6881;49.962;7.718;2023-12-20T14:44:39;4.47;;;2.43;;
3781;SDS011;6881;49.962;7.718;2023-12-20T14:47:06;4.97;;;2.37;;
3781;SDS011;6881;49.962;7.718;2023-12-20T14:49:31;6.50;;;2.33;;
3781;SDS011;6881;49.962;7.718;2023-12-20T14:51:56;3.10;;;1.50;;
3781;SDS011;6881;49.962;7.718;2023-12-20T14:54:23;8.27;;;2.27;;
3781;SDS011;6881;49.962;7.718;2023-12-20T14:56:48;7.50;;;1.07;;
3781;SDS011;6881;49.962;7.718;2023-12-20T14:59:14;4.50;;;1.47;;
3781;SDS011;6881;49.962;7.718;2023-12-20T15:01:39;3.53;;;1.80;;
3781;SDS011;6881;49.962;7.718;2023-12-20T15:04:08;5.47;;;1.97;;
3781;SDS011;6881;49.962;7.718;2023-12-20T15:06:33;6.03;;;2.50;;
3781;SDS011;6881;49.962;7.718;2023-12-20T15:08:59;4.50;;;2.47;;
3781;SDS011;6881;49.962;7.718;2023-12-20T15:11:25;8.30;;;3.23;;
3781;SDS011;6881;49.962;7.718;2023-12-20T15:13:51;7.90;;;2.53;;
3781;SDS011;6881;49.962;7.718;2023-12-20T15:16:20;5.00;;;2.40;;